Time;durP1;ratioP1;P1;durP2;ratioP2;P2;SDS_P1;SDS_P2;PMS_P1;PMS_P2;Temp;Humidity;BMP_temperature;BMP_pressure;BME280_temperature;BME280_humidity;BME280_pressure;Samples;Min_cycle;Max_cycle;Signal;HPM_P1;HPM_P2
2021/01/29 00:01:38;;;;;;;2.47;1.30;;;19.70;47.00;;;;;;5034997;28;20482;-71
2021/01/29 00:04:05;;;;;;;1.17;1.17;;;19.70;47.00;;;;;;5035648;28;20486;-69
2021/01/29 00:06:31;;;;;;;2.40;1.67;;;19.70;47.00;;;;;;5024470;28;20561;-69
2021/01/29 00:08:57;;;;;;;1.23;1.13;;;19.70;47.00;;;;;;5023978;28;20482;-69
2021/01/29 00:11:23;;;;;;;1.40;1.10;;;19.70;47.00;;;;;;5009826;28;20498;-69
2021/01/29 00:13:49;;;;;;;1.20;1.10;;;19.70;47.00;;;;;;5022565;28;20482;-69
2021/01/29 00:16:15;;;;;;;1.43;1.33;;;19.70;46.90;;;;;;5036760;28;20485;-70
2021/01/29 00:18:42;;;;;;;1.40;1.30;;;19.70;47.00;;;;;;5027590;28;20492;-69
2021/01/29 00:21:09;;;;;;;1.10;1.10;;;19.70;47.00;;;;;;5035324;28;20480;-69
2021/01/29 00:23:36;;;;;;;1.20;1.20;;;19.70;46.90;;;;;;5035756;28;20510;-68
2021/01/29 00:26:02;;;;;;;1.30;1.20;;;19.70;46.80;;;;;;5036829;28;20486;-68
2021/01/29 00:28:28;;;;;;;1.23;1.13;;;19.70;46.90;;;;;;5036721;28;20521;-69
2021/01/29 00:30:54;;;;;;;1.20;1.20;;;19.70;46.80;;;;;;5034674;28;20490;-68
2021/01/29 00:33:22;;;;;;;1.30;1.17;;;19.70;46.70;;;;;;5034680;28;20715;-69
2021/01/29 00:35:49;;;;;;;1.47;1.13;;;19.70;46.60;;;;;;5034367;28;20480;-68
2021/01/29 00:38:15;;;;;;;1.23;1.13;;;19.70;46.60;;;;;;5036372;28;20482;-69
2021/01/29 00:40:41;;;;;;;1.40;1.30;;;19.70;46.60;;;;;;5033210;28;20470;-69
2021/01/29 00:43:08;;;;;;;1.07;1.07;;;19.70;46.60;;;;;;5024684;28;21062;-68
2021/01/29 00:45:35;;;;;;;1.53;1.43;;;19.70;46.60;;;;;;5034739;28;20878;-69
2021/01/29 00:48:01;;;;;;;1.10;1.10;;;19.70;46.60;;;;;;5039674;28;22837;-69
2021/01/29 00:50:28;;;;;;;1.33;1.10;;;19.70;46.60;;;;;;5034241;28;20482;-68
2021/01/29 00:52:55;;;;;;;1.00;1.00;;;19.70;46.60;;;;;;5029944;28;20499;-68
2021/01/29 00:55:21;;;;;;;1.20;1.20;;;19.70;46.80;;;;;;5033495;28;20536;-69
2021/01/29 00:57:48;;;;;;;1.60;1.50;;;19.60;46.60;;;;;;5033332;28;20479;-69
2021/01/29 01:00:15;;;;;;;1.30;1.23;;;19.70;46.70;;;;;;5023787;28;20478;-69
2021/01/29 01:02:41;;;;;;;1.50;1.50;;;19.70;46.70;;;;;;5032916;28;20524;-69
2021/01/29 01:05:08;;;;;;;1.10;1.10;;;19.70;46.70;;;;;;5035037;28;20478;-70
2021/01/29 01:07:34;;;;;;;1.27;1.17;;;19.70;46.70;;;;;;5027370;28;20527;-70
2021/01/29 01:10:01;;;;;;;1.00;1.00;;;19.60;46.60;;;;;;5027917;28;20475;-70
2021/01/29 01:12:27;;;;;;;2.93;0.70;;;19.70;46.70;;;;;;5033082;28;20521;-69
2021/01/29 01:14:53;;;;;;;1.07;0.97;;;19.60;46.60;;;;;;5034440;28;21591;-69
2021/01/29 01:17:20;;;;;;;1.67;1.30;;;19.70;46.70;;;;;;5036115;28;20485;-69
2021/01/29 01:19:46;;;;;;;0.90;0.90;;;19.70;46.70;;;;;;5024956;28;20486;-68
2021/01/29 01:22:12;;;;;;;1.50;1.40;;;19.70;46.70;;;;;;5030986;28;20563;-70
2021/01/29 01:24:39;;;;;;;0.93;0.93;;;19.60;46.50;;;;;;5033967;28;20475;-69
2021/01/29 01:27:07;;;;;;;1.30;1.20;;;19.60;46.40;;;;;;5034691;28;20566;-69
2021/01/29 01:29:34;;;;;;;1.83;1.23;;;19.60;46.30;;;;;;5034905;28;20910;-69
2021/01/29 01:32:00;;;;;;;0.97;0.97;;;19.60;46.30;;;;;;5035030;28;21212;-68
2021/01/29 01:34:26;;;;;;;0.87;0.87;;;19.70;46.40;;;;;;5033828;28;20490;-69
2021/01/29 01:36:53;;;;;;;1.00;1.00;;;19.60;46.30;;;;;;5034361;28;22193;-69
2021/01/29 01:39:19;;;;;;;1.40;1.30;;;19.60;46.30;;;;;;5032568;28;20727;-70
2021/01/29 01:41:45;;;;;;;1.20;1.03;;;19.60;46.50;;;;;;5029756;28;20481;-69
2021/01/29 01:44:23;;;;;;;1.17;1.07;;;19.60;46.30;;;;;;5035285;28;20489;-71
2021/01/29 01:46:49;;;;;;;1.33;1.13;;;19.60;46.30;;;;;;5032468;28;20483;-69
2021/01/29 01:49:15;;;;;;;1.97;1.07;;;19.60;46.30;;;;;;5035034;28;20474;-69
2021/01/29 01:51:43;;;;;;;1.00;1.00;;;19.70;46.40;;;;;;5031059;28;20544;-68
2021/01/29 01:54:19;;;;;;;3.90;1.00;;;19.70;46.40;;;;;;4998175;28;20490;-68
2021/01/29 01:56:46;;;;;;;0.90;0.90;;;19.70;46.40;;;;;;5029382;28;20990;-69
2021/01/29 01:59:15;;;;;;;1.20;1.10;;;19.60;46.30;;;;;;5035421;28;20941;-69
2021/01/29 02:01:43;;;;;;;1.00;0.90;;;19.60;46.30;;;;;;5019439;28;20482;-69
2021/01/29 02:04:09;;;;;;;1.07;1.07;;;19.70;46.40;;;;;;5022840;28;20828;-69
2021/01/29 02:06:37;;;;;;;1.07;1.07;;;19.70;46.40;;;;;;5032884;28;20893;-69
2021/01/29 02:09:05;;;;;;;1.03;1.03;;;19.70;46.40;;;;;;5020193;28;21050;-68
2021/01/29 02:11:31;;;;;;;2.60;0.80;;;19.70;46.40;;;;;;5022836;28;20511;-69
2021/01/29 02:13:57;;;;;;;0.70;0.70;;;19.70;46.40;;;;;;5029770;28;21118;-69
2021/01/29 02:16:28;;;;;;;1.10;1.00;;;19.70;46.40;;;;;;5014967;28;21585;-69
2021/01/29 02:19:15;;;;;;;1.10;0.93;;;19.70;46.40;;;;;;5029342;28;20488;-69
2021/01/29 02:22:07;;;;;;;0.83;0.83;;;19.60;46.30;;;;;;5028977;28;20477;-69
2021/01/29 02:24:49;;;;;;;0.80;0.80;;;19.70;46.40;;;;;;5030003;28;20985;-68
2021/01/29 02:27:35;;;;;;;3.43;0.80;;;19.60;46.30;;;;;;5026520;28;20490;-69
2021/01/29 02:30:29;;;;;;;0.70;0.70;;;19.60;46.30;;;;;;5031552;28;20965;-68
2021/01/29 02:33:38;;;;;;;0.80;0.80;;;19.60;46.30;;;;;;5032361;28;20490;-69
2021/01/29 02:36:25;;;;;;;1.00;1.00;;;19.60;46.30;;;;;;5032403;28;20474;-69
2021/01/29 02:39:02;;;;;;;0.90;0.90;;;19.60;46.30;;;;;;5032646;28;20482;-68
2021/01/29 02:41:37;;;;;;;0.93;0.93;;;19.60;46.30;;;;;;5031761;28;20489;-70
2021/01/29 02:44:09;;;;;;;0.90;0.90;;;19.60;46.30;;;;;;5033851;28;20497;-69
2021/01/29 02:46:45;;;;;;;1.00;1.00;;;19.60;46.30;;;;;;5031679;28;20554;-68
2021/01/29 02:49:14;;;;;;;1.10;1.10;;;19.60;46.30;;;;;;5022767;28;20553;-69
2021/01/29 02:51:43;;;;;;;0.80;0.77;;;19.60;46.30;;;;;;5019999;28;21147;-68
2021/01/29 02:54:13;;;;;;;1.27;1.00;;;19.60;46.30;;;;;;5022553;28;20471;-70
2021/01/29 02:56:42;;;;;;;1.33;1.03;;;19.60;46.30;;;;;;5020429;28;20483;-69
2021/01/29 02:59:11;;;;;;;0.97;0.70;;;19.60;46.30;;;;;;5019803;28;20484;-68
2021/01/29 03:01:39;;;;;;;2.03;1.93;;;19.60;46.30;;;;;;5031522;28;20470;-69
2021/01/29 03:04:06;;;;;;;0.80;0.80;;;19.60;46.30;;;;;;5031680;28;20477;-69
2021/01/29 03:06:39;;;;;;;0.80;0.80;;;19.60;46.30;;;;;;5029853;28;20491;-69
2021/01/29 03:09:08;;;;;;;0.90;0.90;;;19.60;46.20;;;;;;5031595;28;20486;-69
2021/01/29 03:11:37;;;;;;;1.13;1.00;;;19.70;46.40;;;;;;5029210;28;20509;-69
2021/01/29 03:14:07;;;;;;;1.17;1.03;;;19.60;46.10;;;;;;5001683;28;20475;-69
2021/01/29 03:16:39;;;;;;;1.17;1.00;;;19.60;46.20;;;;;;5022991;28;20501;-69
2021/01/29 03:19:08;;;;;;;1.57;1.10;;;19.60;46.30;;;;;;5031775;28;20486;-69
2021/01/29 03:21:36;;;;;;;1.00;1.00;;;19.60;46.30;;;;;;5026236;28;20496;-69
2021/01/29 03:24:04;;;;;;;0.70;0.70;;;19.60;46.30;;;;;;5033188;28;20525;-69
2021/01/29 03:26:32;;;;;;;1.00;1.00;;;19.60;46.30;;;;;;5032363;28;20491;-69
2021/01/29 03:29:01;;;;;;;0.80;0.73;;;19.60;46.30;;;;;;5034143;28;20493;-68
2021/01/29 03:31:28;;;;;;;0.90;0.90;;;19.60;46.30;;;;;;5032412;28;20866;-68
2021/01/29 03:33:59;;;;;;;2.40;0.90;;;19.60;46.30;;;;;;5030333;28;20474;-70
2021/01/29 03:36:25;;;;;;;0.73;0.73;;;19.60;47.10;;;;;;5030199;28;21023;-69
2021/01/29 03:38:53;;;;;;;0.70;0.70;;;19.60;46.30;;;;;;5035035;28;21517;-68
2021/01/29 03:41:20;;;;;;;1.03;0.60;;;19.60;46.30;;;;;;5023317;28;21133;-69
2021/01/29 03:43:52;;;;;;;1.23;1.00;;;19.60;46.30;;;;;;5032184;28;20488;-69
2021/01/29 03:46:23;;;;;;;0.80;0.80;;;19.60;46.30;;;;;;5034940;28;20480;-69
2021/01/29 03:48:51;;;;;;;1.10;1.00;;;19.60;46.30;;;;;;5032840;28;20571;-68
2021/01/29 03:51:20;;;;;;;0.70;0.70;;;19.60;46.30;;;;;;5032870;28;20486;-68
2021/01/29 03:53:49;;;;;;;1.07;1.07;;;19.50;46.20;;;;;;5037429;28;20973;-69
2021/01/29 03:56:33;;;;;;;1.27;1.00;;;19.60;46.30;;;;;;5039744;28;20553;-69
2021/01/29 03:59:02;;;;;;;2.10;0.93;;;19.60;46.30;;;;;;5039536;28;20514;-69
2021/01/29 04:01:36;;;;;;;0.97;0.97;;;19.60;46.20;;;;;;5035123;28;20502;-69
2021/01/29 04:04:04;;;;;;;1.07;0.80;;;19.60;46.00;;;;;;5034900;28;21618;-68
2021/01/29 04:06:33;;;;;;;1.10;1.10;;;19.60;46.00;;;;;;5035347;28;20577;-68
2021/01/29 04:09:01;;;;;;;0.60;0.60;;;19.60;46.00;;;;;;5034933;28;20490;-68
2021/01/29 04:11:31;;;;;;;2.40;0.90;;;19.60;46.00;;;;;;5034395;28;20490;-68
2021/01/29 04:13:59;;;;;;;0.70;0.70;;;19.70;45.90;;;;;;5024896;28;20482;-68
2021/01/29 04:16:31;;;;;;;0.70;0.70;;;19.70;45.90;;;;;;5033522;28;20577;-69
2021/01/29 04:18:58;;;;;;;0.77;0.77;;;19.70;45.80;;;;;;5034078;28;20536;-68
2021/01/29 04:21:26;;;;;;;0.70;0.70;;;19.70;45.80;;;;;;5032051;28;21006;-69
2021/01/29 04:23:56;;;;;;;0.80;0.80;;;19.70;45.70;;;;;;5025646;28;20493;-68
2021/01/29 04:26:23;;;;;;;0.80;0.70;;;19.80;45.80;;;;;;5021559;28;20957;-69
2021/01/29 04:28:52;;;;;;;0.70;0.70;;;19.80;45.80;;;;;;5034700;28;20492;-69
2021/01/29 04:31:18;;;;;;;1.27;1.17;;;19.80;45.50;;;;;;5034209;28;20878;-67
2021/01/29 04:33:47;;;;;;;0.80;0.80;;;19.90;45.40;;;;;;5033766;28;20486;-68
2021/01/29 04:36:15;;;;;;;0.80;0.80;;;20.00;45.20;;;;;;5028435;28;20532;-68
2021/01/29 04:38:44;;;;;;;0.70;0.70;;;20.00;45.10;;;;;;5034728;28;20497;-68
2021/01/29 04:41:28;;;;;;;1.90;0.90;;;20.10;45.10;;;;;;5034259;28;20554;-68
2021/01/29 04:44:04;;;;;;;0.80;0.80;;;20.10;45.10;;;;;;5034665;28;20462;-68
2021/01/29 04:46:44;;;;;;;0.70;0.70;;;20.10;45.00;;;;;;5034079;28;20487;-67
2021/01/29 04:49:18;;;;;;;0.97;0.97;;;20.10;45.10;;;;;;5034526;28;20839;-68
2021/01/29 04:52:21;;;;;;;0.70;0.60;;;20.00;45.10;;;;;;5021804;28;20492;-67
2021/01/29 04:54:58;;;;;;;1.20;1.20;;;20.00;45.20;;;;;;5030399;28;21209;-67
2021/01/29 04:57:50;;;;;;;3.60;1.97;;;19.90;45.30;;;;;;5033714;28;20489;-67
2021/01/29 05:00:42;;;;;;;0.87;0.87;;;19.80;45.40;;;;;;5023713;28;20482;-69
2021/01/29 05:03:35;;;;;;;0.50;0.50;;;19.80;45.50;;;;;;5031991;28;20576;-68
2021/01/29 05:06:17;;;;;;;0.80;0.80;;;19.80;45.60;;;;;;5031035;28;20566;-68
2021/01/29 05:09:09;;;;;;;0.97;0.97;;;19.80;45.70;;;;;;5024250;28;20860;-67
2021/01/29 05:12:06;;;;;;;0.67;0.67;;;19.80;45.70;;;;;;5032249;28;20478;-68
2021/01/29 05:14:58;;;;;;;0.63;0.60;;;19.80;45.70;;;;;;5032003;28;20487;-68
2021/01/29 05:18:10;;;;;;;0.80;0.80;;;19.80;45.80;;;;;;5033911;28;20989;-68
2021/01/29 05:20:48;;;;;;;0.80;0.70;;;19.80;45.70;;;;;;5032342;28;20462;-68
2021/01/29 05:23:21;;;;;;;0.77;0.77;;;19.80;45.70;;;;;;5022195;28;20826;-69
2021/01/29 05:26:32;;;;;;;0.77;0.77;;;19.80;45.60;;;;;;5030736;28;21022;-68
2021/01/29 05:29:06;;;;;;;0.60;0.60;;;19.80;45.50;;;;;;5002094;28;20486;-68
2021/01/29 05:31:51;;;;;;;0.80;0.80;;;19.90;45.50;;;;;;5033016;28;20491;-68
2021/01/29 05:34:38;;;;;;;0.90;0.90;;;19.90;45.30;;;;;;5015399;28;20490;-69
2021/01/29 05:37:28;;;;;;;1.80;0.90;;;19.90;45.20;;;;;;5021924;28;20475;-69
2021/01/29 05:39:56;;;;;;;0.80;0.80;;;19.90;45.20;;;;;;5021752;28;20841;-68
2021/01/29 05:42:26;;;;;;;1.07;0.97;;;19.90;45.30;;;;;;5020487;28;20490;-69
2021/01/29 05:45:05;;;;;;;1.30;0.97;;;19.90;45.30;;;;;;5033305;28;20493;-68
2021/01/29 05:47:47;;;;;;;0.70;0.70;;;19.90;45.30;;;;;;5033436;28;20486;-68
2021/01/29 05:50:19;;;;;;;2.20;0.93;;;19.90;45.40;;;;;;5026512;28;21634;-68
2021/01/29 05:53:01;;;;;;;1.70;0.67;;;19.80;45.30;;;;;;5028599;28;20483;-68
2021/01/29 05:55:38;;;;;;;0.70;0.70;;;19.90;45.30;;;;;;5032346;28;20986;-68
2021/01/29 05:58:31;;;;;;;0.83;0.83;;;19.90;45.30;;;;;;5021765;28;20495;-68
2021/01/29 06:01:31;;;;;;;1.43;1.10;;;19.90;45.30;;;;;;5028524;28;20991;-69
2021/01/29 06:04:44;;;;;;;0.60;0.60;;;19.90;45.30;;;;;;5033461;28;20489;-69
2021/01/29 06:07:35;;;;;;;0.70;0.70;;;19.90;46.10;;;;;;5032754;28;20486;-67
2021/01/29 06:10:27;;;;;;;0.80;0.80;;;19.90;45.30;;;;;;5033801;28;20489;-68
2021/01/29 06:13:37;;;;;;;0.67;0.67;;;19.90;45.20;;;;;;5022737;28;21191;-67
2021/01/29 06:16:26;;;;;;;0.90;0.90;;;19.90;45.20;;;;;;5015632;28;20481;-68
2021/01/29 06:19:09;;;;;;;0.83;0.70;;;19.90;45.20;;;;;;5032521;28;20592;-68
2021/01/29 06:21:56;;;;;;;0.63;0.63;;;19.90;45.20;;;;;;5030139;28;20482;-68
2021/01/29 06:24:42;;;;;;;0.63;0.63;;;20.00;45.20;;;;;;5022363;28;20478;-68
2021/01/29 06:27:32;;;;;;;1.00;0.90;;;19.90;45.00;;;;;;5034964;28;20608;-68
2021/01/29 06:30:16;;;;;;;0.73;0.73;;;20.00;45.00;;;;;;5030463;28;20471;-68
2021/01/29 06:33:00;;;;;;;0.57;0.57;;;20.00;44.80;;;;;;5024349;28;20493;-67
2021/01/29 06:35:53;;;;;;;0.70;0.70;;;20.00;44.80;;;;;;5031700;28;20474;-68
2021/01/29 06:38:33;;;;;;;0.60;0.60;;;20.00;44.90;;;;;;5004496;28;20482;-68
2021/01/29 06:41:10;;;;;;;1.33;0.80;;;20.00;44.90;;;;;;5022574;28;20481;-68
2021/01/29 06:43:44;;;;;;;0.80;0.80;;;20.00;44.90;;;;;;5030984;28;20609;-68
2021/01/29 06:46:20;;;;;;;0.70;0.70;;;20.00;44.90;;;;;;5032915;28;20850;-68
2021/01/29 06:49:19;;;;;;;0.70;0.70;;;20.10;44.90;;;;;;5023021;28;20814;-69
2021/01/29 06:52:07;;;;;;;0.77;0.77;;;20.10;44.70;;;;;;5016747;28;20470;-69
2021/01/29 06:54:51;;;;;;;1.57;0.80;;;20.10;44.60;;;;;;5032132;28;20494;-68
2021/01/29 06:57:28;;;;;;;1.07;0.90;;;20.20;44.50;;;;;;5025125;28;20486;-68
2021/01/29 07:00:04;;;;;;;0.70;0.70;;;20.20;44.40;;;;;;5038082;28;20488;-69
2021/01/29 07:03:19;;;;;;;0.70;0.70;;;20.20;44.40;;;;;;5005055;28;20506;-69
2021/01/29 07:06:01;;;;;;;0.50;0.50;;;20.10;44.50;;;;;;5026254;28;20493;-69
2021/01/29 07:08:41;;;;;;;0.70;0.70;;;20.10;44.70;;;;;;5008660;28;20479;-69
2021/01/29 07:11:25;;;;;;;0.70;0.70;;;20.00;44.70;;;;;;5030152;28;20479;-68
2021/01/29 07:14:07;;;;;;;0.70;0.63;;;20.00;44.70;;;;;;5022083;28;20482;-69
2021/01/29 07:16:56;;;;;;;0.60;0.60;;;20.00;44.80;;;;;;5034662;28;20502;-69
2021/01/29 07:19:33;;;;;;;1.37;1.10;;;19.90;44.80;;;;;;5031581;28;20479;-69
2021/01/29 07:22:29;;;;;;;0.50;0.50;;;20.00;44.80;;;;;;5023884;28;20488;-68
2021/01/29 07:25:00;;;;;;;0.50;0.50;;;19.90;44.80;;;;;;5018555;28;20482;-68
2021/01/29 07:27:34;;;;;;;0.90;0.70;;;19.90;44.80;;;;;;5037733;28;20493;-68
2021/01/29 07:30:24;;;;;;;1.17;0.63;;;19.90;44.80;;;;;;5038619;28;20486;-69
2021/01/29 07:32:51;;;;;;;0.60;0.60;;;19.90;44.80;;;;;;5024873;28;20484;-68
2021/01/29 07:35:24;;;;;;;0.60;0.60;;;19.90;44.80;;;;;;5038345;28;20482;-68
2021/01/29 07:38:22;;;;;;;0.90;0.90;;;19.90;44.80;;;;;;5033838;28;20529;-69
2021/01/29 07:41:09;;;;;;;0.73;0.73;;;19.90;44.80;;;;;;5022201;28;20518;-67
2021/01/29 07:43:58;;;;;;;0.70;0.70;;;19.90;44.80;;;;;;5036383;28;20478;-68
2021/01/29 07:46:32;;;;;;;1.30;0.50;;;20.00;44.80;;;;;;5035593;28;20824;-68
2021/01/29 07:49:21;;;;;;;0.80;0.80;;;20.00;44.70;;;;;;5036380;28;22034;-69
2021/01/29 07:51:51;;;;;;;1.63;1.10;;;20.00;45.40;;;;;;5021299;28;20608;-69
2021/01/29 07:54:54;;;;;;;1.73;0.70;;;19.90;44.60;;;;;;5027236;28;20471;-68
2021/01/29 07:57:30;;;;;;;0.70;0.70;;;19.90;44.60;;;;;;5020948;28;21026;-68
2021/01/29 08:00:12;;;;;;;0.80;0.60;;;19.90;44.60;;;;;;5034327;28;21111;-68
2021/01/29 08:03:03;;;;;;;0.77;0.77;;;19.80;44.70;;;;;;5034449;28;20555;-69
2021/01/29 08:05:30;;;;;;;0.80;0.70;;;19.90;44.80;;;;;;5025512;28;20539;-69
2021/01/29 08:07:59;;;;;;;0.70;0.70;;;19.90;44.70;;;;;;5031699;28;20479;-69
2021/01/29 08:10:30;;;;;;;1.37;1.00;;;19.90;44.60;;;;;;5024958;28;20490;-68
2021/01/29 08:13:02;;;;;;;0.90;0.60;;;20.00;44.50;;;;;;5035550;28;20494;-68
2021/01/29 08:15:30;;;;;;;1.40;0.70;;;20.00;44.40;;;;;;5034867;28;20645;-68
2021/01/29 08:18:12;;;;;;;0.80;0.50;;;20.00;44.30;;;;;;5033792;28;20805;-69
2021/01/29 08:20:46;;;;;;;0.60;0.60;;;20.00;44.40;;;;;;5034637;28;20481;-68
2021/01/29 08:23:20;;;;;;;0.50;0.50;;;20.00;44.50;;;;;;5034498;28;20474;-69
2021/01/29 08:26:07;;;;;;;0.60;0.60;;;19.90;44.60;;;;;;5022534;28;20482;-68
2021/01/29 08:29:00;;;;;;;0.80;0.50;;;19.90;44.70;;;;;;5030796;28;21633;-69
2021/01/29 08:31:55;;;;;;;0.70;0.70;;;19.80;44.80;;;;;;5032711;28;20494;-68
2021/01/29 08:34:42;;;;;;;0.50;0.50;;;19.80;44.80;;;;;;5025400;28;20478;-68
2021/01/29 08:37:29;;;;;;;0.67;0.67;;;19.80;44.80;;;;;;5023913;28;20505;-68
2021/01/29 08:39:58;;;;;;;0.50;0.50;;;19.70;44.80;;;;;;5033710;28;20472;-68
2021/01/29 08:42:29;;;;;;;0.83;0.70;;;19.70;44.90;;;;;;5030957;28;20486;-68
2021/01/29 08:45:23;;;;;;;0.70;0.67;;;19.70;44.80;;;;;;5033400;28;20554;-69
2021/01/29 08:48:08;;;;;;;0.50;0.50;;;19.70;44.80;;;;;;5006679;28;20982;-69
2021/01/29 08:50:50;;;;;;;0.70;0.70;;;19.70;44.90;;;;;;5034309;28;21052;-67
2021/01/29 08:54:04;;;;;;;0.60;0.60;;;19.70;44.90;;;;;;5051113;28;20474;-69
2021/01/29 08:56:36;;;;;;;0.53;0.53;;;19.70;44.90;;;;;;5032786;28;20530;-68
2021/01/29 08:59:03;;;;;;;0.60;0.60;;;19.70;44.80;;;;;;5036438;28;21056;-69
2021/01/29 09:01:33;;;;;;;1.00;0.70;;;19.70;44.80;;;;;;5034161;28;20494;-69
2021/01/29 09:04:02;;;;;;;2.20;0.60;;;19.80;44.80;;;;;;5021523;28;20475;-68
2021/01/29 09:06:29;;;;;;;0.70;0.70;;;19.80;44.60;;;;;;5031190;28;20486;-69
2021/01/29 09:08:59;;;;;;;0.60;0.60;;;19.80;44.50;;;;;;5034676;28;20483;-68
2021/01/29 09:11:28;;;;;;;0.63;0.63;;;19.90;44.50;;;;;;5031108;28;20483;-68
2021/01/29 09:13:57;;;;;;;0.83;0.83;;;19.90;44.30;;;;;;5033251;28;22016;-69
2021/01/29 09:16:25;;;;;;;0.60;0.60;;;20.00;44.30;;;;;;5033047;28;20820;-68
2021/01/29 09:18:56;;;;;;;0.70;0.60;;;20.00;44.30;;;;;;5033102;28;21113;-69
2021/01/29 09:21:26;;;;;;;0.57;0.57;;;19.90;44.20;;;;;;5030995;28;20582;-68
2021/01/29 09:24:02;;;;;;;1.03;0.50;;;19.90;44.20;;;;;;5032672;28;20478;-69
2021/01/29 09:26:31;;;;;;;0.77;0.63;;;19.90;44.30;;;;;;5032956;28;20522;-67
2021/01/29 09:29:01;;;;;;;1.03;0.80;;;19.80;44.30;;;;;;5034523;28;20507;-68
2021/01/29 09:31:29;;;;;;;0.70;0.70;;;19.80;44.60;;;;;;5034275;28;20485;-68
2021/01/29 09:33:57;;;;;;;0.50;0.50;;;19.80;44.60;;;;;;5020059;28;20474;-68
2021/01/29 09:36:25;;;;;;;0.80;0.80;;;19.80;44.60;;;;;;5033599;28;20479;-70
2021/01/29 09:38:53;;;;;;;0.60;0.60;;;19.70;44.70;;;;;;5028366;28;20484;-72
2021/01/29 09:41:21;;;;;;;0.63;0.63;;;19.70;44.70;;;;;;5031442;28;21045;-68
2021/01/29 09:43:51;;;;;;;0.70;0.70;;;19.70;44.70;;;;;;4995726;28;20489;-68
2021/01/29 09:46:25;;;;;;;0.60;0.60;;;19.70;44.70;;;;;;5007528;28;20471;-69
2021/01/29 09:49:00;;;;;;;0.60;0.60;;;19.70;44.50;;;;;;5023203;28;20487;-68
2021/01/29 09:51:35;;;;;;;0.63;0.60;;;19.70;44.70;;;;;;5030587;28;20482;-68
2021/01/29 09:54:04;;;;;;;0.73;0.73;;;19.80;44.60;;;;;;5032934;28;20482;-68
2021/01/29 09:56:32;;;;;;;0.80;0.80;;;19.80;44.60;;;;;;5033221;28;20509;-68
2021/01/29 09:59:17;;;;;;;0.60;0.60;;;19.80;44.50;;;;;;5034381;28;20506;-68
2021/01/29 10:01:47;;;;;;;0.50;0.50;;;19.80;44.50;;;;;;5021206;28;20478;-69
2021/01/29 10:04:18;;;;;;;1.37;0.60;;;19.80;44.60;;;;;;5030401;28;20613;-68
2021/01/29 10:06:48;;;;;;;1.37;0.57;;;19.80;44.60;;;;;;5037246;28;20496;-68
2021/01/29 10:09:16;;;;;;;0.87;0.87;;;19.70;44.80;;;;;;5030243;28;20483;-68
2021/01/29 10:11:43;;;;;;;0.60;0.60;;;19.70;44.80;;;;;;5031344;28;20478;-68
2021/01/29 10:14:11;;;;;;;0.50;0.50;;;19.70;44.80;;;;;;5019297;28;20483;-67
2021/01/29 10:16:40;;;;;;;0.70;0.70;;;19.70;44.80;;;;;;5028308;28;20998;-69
2021/01/29 10:19:27;;;;;;;1.63;1.00;;;19.70;44.80;;;;;;5031588;28;20491;-68
2021/01/29 10:22:38;;;;;;;0.60;0.60;;;19.70;44.80;;;;;;5023299;28;20491;-68
2021/01/29 10:25:11;;;;;;;1.00;0.90;;;19.70;44.80;;;;;;5032432;28;20486;-67
2021/01/29 10:27:40;;;;;;;1.17;0.60;;;19.70;44.80;;;;;;5031895;28;20552;-68
2021/01/29 10:30:08;;;;;;;0.80;0.67;;;19.70;44.80;;;;;;5031416;28;20856;-69
2021/01/29 10:32:36;;;;;;;0.60;0.60;;;19.70;44.70;;;;;;5033297;28;20493;-68
2021/01/29 10:35:07;;;;;;;0.50;0.50;;;19.70;44.80;;;;;;5026189;28;20487;-68
2021/01/29 10:37:36;;;;;;;1.53;0.70;;;19.60;44.70;;;;;;5031628;28;20502;-68
2021/01/29 10:40:21;;;;;;;0.97;0.80;;;19.70;44.80;;;;;;5021662;28;20495;-67
2021/01/29 10:42:53;;;;;;;0.60;0.60;;;19.70;44.70;;;;;;5029842;28;20482;-68
2021/01/29 10:45:34;;;;;;;0.50;0.50;;;19.70;44.80;;;;;;5024623;28;20479;-68
2021/01/29 10:48:06;;;;;;;0.77;0.77;;;19.70;44.60;;;;;;5036369;28;20482;-68
2021/01/29 10:50:34;;;;;;;0.70;0.70;;;19.70;44.60;;;;;;5027505;28;20486;-68
2021/01/29 10:53:03;;;;;;;3.90;0.60;;;19.80;44.60;;;;;;5040359;28;20506;-68
2021/01/29 10:55:30;;;;;;;5.70;0.77;;;19.70;44.40;;;;;;5037058;28;20525;-67
2021/01/29 10:58:24;;;;;;;0.83;0.67;;;19.70;44.60;;;;;;5041465;28;20539;-68
2021/01/29 11:00:52;;;;;;;0.90;0.80;;;19.70;44.50;;;;;;5043030;28;20472;-69
2021/01/29 11:03:21;;;;;;;0.70;0.70;;;19.70;44.80;;;;;;5036632;28;20474;-68
2021/01/29 11:05:48;;;;;;;0.70;0.70;;;19.60;44.70;;;;;;5036484;28;20479;-68
2021/01/29 11:08:22;;;;;;;0.60;0.60;;;19.60;44.70;;;;;;5043174;28;20572;-70
2021/01/29 11:10:51;;;;;;;0.60;0.60;;;19.70;44.70;;;;;;5040798;28;21597;-68
2021/01/29 11:13:18;;;;;;;1.00;0.73;;;19.70;44.60;;;;;;5038795;28;20844;-68
2021/01/29 11:15:47;;;;;;;0.70;0.70;;;19.70;44.50;;;;;;5040314;28;20489;-68
2021/01/29 11:18:15;;;;;;;1.33;0.60;;;19.80;44.30;;;;;;5028166;28;20495;-68
2021/01/29 11:20:41;;;;;;;1.03;0.70;;;19.80;44.20;;;;;;5039721;28;21152;-68
2021/01/29 11:23:12;;;;;;;0.50;0.50;;;19.80;44.20;;;;;;5028029;28;20482;-69
2021/01/29 11:25:51;;;;;;;0.70;0.70;;;19.80;44.10;;;;;;5028213;28;21057;-68
2021/01/29 11:28:32;;;;;;;0.77;0.77;;;19.80;44.20;;;;;;5040064;28;21155;-68
2021/01/29 11:31:01;;;;;;;0.80;0.80;;;19.80;44.50;;;;;;5038212;28;20487;-68
2021/01/29 11:33:29;;;;;;;0.90;0.90;;;19.70;44.30;;;;;;5037063;28;20493;-67
2021/01/29 11:36:01;;;;;;;0.93;0.90;;;19.80;44.30;;;;;;5039616;28;20494;-67
2021/01/29 11:38:45;;;;;;;0.83;0.83;;;19.80;44.30;;;;;;5037957;28;21262;-67
2021/01/29 11:41:23;;;;;;;0.70;0.60;;;19.90;44.20;;;;;;5028866;28;20994;-67
2021/01/29 11:43:51;;;;;;;1.03;0.70;;;19.90;44.00;;;;;;5028718;28;20520;-68
2021/01/29 11:46:22;;;;;;;0.90;0.90;;;19.90;43.90;;;;;;5037303;28;20471;-67
2021/01/29 11:48:51;;;;;;;0.50;0.50;;;19.90;44.00;;;;;;5038860;28;20847;-68
2021/01/29 11:51:22;;;;;;;0.70;0.70;;;19.90;44.00;;;;;;5036890;28;20470;-68
2021/01/29 11:53:51;;;;;;;0.73;0.53;;;19.80;44.00;;;;;;5024626;28;20477;-68
2021/01/29 11:56:20;;;;;;;0.90;0.63;;;19.80;44.10;;;;;;5014138;28;20924;-68
2021/01/29 11:58:48;;;;;;;0.67;0.67;;;19.80;44.50;;;;;;5034064;28;21245;-68
2021/01/29 12:01:16;;;;;;;0.87;0.87;;;19.70;44.60;;;;;;5036335;28;20482;-68
2021/01/29 12:03:45;;;;;;;0.70;0.60;;;19.70;44.70;;;;;;5034756;28;20474;-68
2021/01/29 12:06:13;;;;;;;0.60;0.60;;;19.70;44.80;;;;;;5036322;28;20544;-68
2021/01/29 12:08:56;;;;;;;0.60;0.60;;;19.70;44.80;;;;;;5034479;28;20478;-68
2021/01/29 12:11:25;;;;;;;2.40;0.60;;;19.60;44.70;;;;;;5023143;28;20843;-68
2021/01/29 12:13:55;;;;;;;0.53;0.53;;;19.60;44.90;;;;;;5021314;28;20513;-68
2021/01/29 12:16:22;;;;;;;0.60;0.60;;;19.60;44.60;;;;;;5015496;28;20573;-68
2021/01/29 12:18:49;;;;;;;0.80;0.80;;;19.60;44.80;;;;;;5035312;28;20491;-67
2021/01/29 12:21:18;;;;;;;0.70;0.70;;;19.70;44.60;;;;;;5031844;28;20995;-67
2021/01/29 12:23:47;;;;;;;0.70;0.70;;;19.60;44.60;;;;;;5033661;28;20488;-67
2021/01/29 12:26:21;;;;;;;0.63;0.63;;;19.70;44.60;;;;;;5033755;28;22278;-68
2021/01/29 12:29:12;;;;;;;0.70;0.70;;;19.70;44.50;;;;;;5034730;28;20998;-67
2021/01/29 12:31:44;;;;;;;0.57;0.57;;;19.80;44.50;;;;;;5038844;28;20483;-67
2021/01/29 12:34:17;;;;;;;0.40;0.40;;;19.70;44.30;;;;;;5033795;28;20506;-67
2021/01/29 12:36:43;;;;;;;0.70;0.70;;;19.70;44.60;;;;;;5023831;28;20477;-68
2021/01/29 12:39:12;;;;;;;0.60;0.60;;;19.70;44.60;;;;;;5027920;28;20478;-67
2021/01/29 12:41:44;;;;;;;1.00;0.90;;;19.70;44.90;;;;;;5032783;28;20501;-67
2021/01/29 12:44:30;;;;;;;0.83;0.60;;;19.60;45.00;;;;;;5034370;28;20489;-68
2021/01/29 12:47:01;;;;;;;0.57;0.50;;;19.50;45.80;;;;;;5033581;28;20483;-68
2021/01/29 12:49:35;;;;;;;0.60;0.60;;;19.60;45.10;;;;;;5025318;28;20950;-68
2021/01/29 12:52:03;;;;;;;0.60;0.60;;;19.50;45.20;;;;;;5019995;28;20493;-67
2021/01/29 12:54:32;;;;;;;0.70;0.70;;;19.60;45.30;;;;;;5030487;28;20497;-68
2021/01/29 12:57:02;;;;;;;1.93;0.60;;;19.60;45.10;;;;;;5035063;28;20573;-68
2021/01/29 12:59:32;;;;;;;0.70;0.70;;;19.60;45.10;;;;;;5020902;28;20827;-68
2021/01/29 13:02:03;;;;;;;0.50;0.50;;;19.60;45.00;;;;;;5034906;28;20483;-68
2021/01/29 13:04:34;;;;;;;0.73;0.53;;;19.60;45.00;;;;;;5034588;28;20567;-67
2021/01/29 13:07:06;;;;;;;0.70;0.70;;;19.60;44.90;;;;;;5025111;28;21038;-68
2021/01/29 13:09:46;;;;;;;1.70;0.60;;;19.70;44.90;;;;;;5032893;28;20490;-68
2021/01/29 13:12:30;;;;;;;0.50;0.50;;;19.70;45.00;;;;;;5031822;28;20497;-68
2021/01/29 13:15:03;;;;;;;0.70;0.70;;;19.60;44.90;;;;;;5027738;28;21113;-68
2021/01/29 13:17:31;;;;;;;0.80;0.80;;;19.70;44.80;;;;;;5023194;28;20499;-68
2021/01/29 13:20:00;;;;;;;1.40;0.70;;;19.80;44.80;;;;;;5032607;28;21007;-68
2021/01/29 13:22:43;;;;;;;0.60;0.60;;;19.80;44.70;;;;;;5030541;28;20514;-69
2021/01/29 13:25:24;;;;;;;0.43;0.40;;;19.80;44.70;;;;;;5018854;28;21042;-68
2021/01/29 13:28:01;;;;;;;0.60;0.60;;;19.90;44.60;;;;;;5021890;28;20489;-68